sensor_id;sensor_type;location;lat;lon;timestamp;P1;durP1;ratioP1;P2;durP2;ratioP2
1404;SDS011;697;51.114;6.542;2023-07-09T00:01:40;8.40;;;6.20;;
1404;SDS011;697;51.114;6.542;2023-07-09T00:04:07;7.70;;;6.70;;
1404;SDS011;697;51.114;6.542;2023-07-09T00:06:36;6.73;;;5.80;;
1404;SDS011;697;51.114;6.542;2023-07-09T00:09:03;6.33;;;5.50;;
1404;SDS011;697;51.114;6.542;2023-07-09T00:11:30;9.73;;;6.70;;
1404;SDS011;697;51.114;6.542;2023-07-09T00:13:57;8.20;;;6.83;;
1404;SDS011;697;51.114;6.542;2023-07-09T00:16:24;11.10;;;6.90;;
1404;SDS011;697;51.114;6.542;2023-07-09T00:18:52;8.03;;;6.40;;
1404;SDS011;697;51.114;6.542;2023-07-09T00:21:19;8.03;;;6.83;;
1404;SDS011;697;51.114;6.542;2023-07-09T00:23:48;9.37;;;6.07;;
1404;SDS011;697;51.114;6.542;2023-07-09T00:26:16;8.60;;;6.90;;
1404;SDS011;697;51.114;6.542;2023-07-09T00:28:45;8.30;;;6.10;;
1404;SDS011;697;51.114;6.542;2023-07-09T00:31:14;6.90;;;5.73;;
1404;SDS011;697;51.114;6.542;2023-07-09T00:33:42;9.30;;;6.47;;
1404;SDS011;697;51.114;6.542;2023-07-09T00:36:11;7.80;;;7.00;;
1404;SDS011;697;51.114;6.542;2023-07-09T00:38:40;7.70;;;7.00;;
1404;SDS011;697;51.114;6.542;2023-07-09T00:41:15;7.57;;;6.40;;
1404;SDS011;697;51.114;6.542;2023-07-09T00:43:44;8.17;;;7.03;;
1404;SDS011;697;51.114;6.542;2023-07-09T00:47:06;8.27;;;6.57;;
1404;SDS011;697;51.114;6.542;2023-07-09T00:49:26;7.50;;;6.37;;
1404;SDS011;697;51.114;6.542;2023-07-09T00:51:55;8.70;;;7.43;;
1404;SDS011;697;51.114;6.542;2023-07-09T00:54:28;8.93;;;7.30;;
1404;SDS011;697;51.114;6.542;2023-07-09T00:57:04;8.10;;;6.97;;
1404;SDS011;697;51.114;6.542;2023-07-09T00:59:34;7.20;;;6.50;;
1404;SDS011;697;51.114;6.542;2023-07-09T01:02:01;8.90;;;7.13;;
1404;SDS011;697;51.114;6.542;2023-07-09T01:04:28;10.10;;;6.00;;
1404;SDS011;697;51.114;6.542;2023-07-09T01:06:56;8.33;;;7.30;;
1404;SDS011;697;51.114;6.542;2023-07-09T01:09:23;9.40;;;7.03;;
1404;SDS011;697;51.114;6.542;2023-07-09T01:11:51;9.27;;;7.40;;
1404;SDS011;697;51.114;6.542;2023-07-09T01:14:22;8.10;;;7.30;;
1404;SDS011;697;51.114;6.542;2023-07-09T01:16:54;9.00;;;6.90;;
1404;SDS011;697;51.114;6.542;2023-07-09T01:19:25;8.67;;;7.27;;
1404;SDS011;697;51.114;6.542;2023-07-09T01:21:55;12.30;;;8.60;;
1404;SDS011;697;51.114;6.542;2023-07-09T01:27:14;10.57;;;8.80;;
1404;SDS011;697;51.114;6.542;2023-07-09T01:29:41;10.07;;;8.10;;
1404;SDS011;697;51.114;6.542;2023-07-09T01:32:11;10.10;;;8.20;;
1404;SDS011;697;51.114;6.542;2023-07-09T01:34:40;11.00;;;7.10;;
1404;SDS011;697;51.114;6.542;2023-07-09T01:37:09;7.50;;;6.70;;
1404;SDS011;697;51.114;6.542;2023-07-09T01:39:35;8.03;;;7.23;;
1404;SDS011;697;51.114;6.542;2023-07-09T01:42:05;7.57;;;6.87;;
1404;SDS011;697;51.114;6.542;2023-07-09T01:44:33;7.60;;;6.80;;
1404;SDS011;697;51.114;6.542;2023-07-09T01:47:00;8.83;;;6.67;;
1404;SDS011;697;51.114;6.542;2023-07-09T01:49:28;13.90;;;7.10;;
1404;SDS011;697;51.114;6.542;2023-07-09T01:51:57;10.13;;;6.43;;
1404;SDS011;697;51.114;6.542;2023-07-09T01:54:27;8.33;;;6.60;;
1404;SDS011;697;51.114;6.542;2023-07-09T01:56:55;9.57;;;7.07;;
1404;SDS011;697;51.114;6.542;2023-07-09T01:59:38;7.10;;;5.93;;
1404;SDS011;697;51.114;6.542;2023-07-09T02:02:06;6.67;;;6.00;;
1404;SDS011;697;51.114;6.542;2023-07-09T02:04:32;7.93;;;6.47;;
1404;SDS011;697;51.114;6.542;2023-07-09T02:06:59;6.40;;;5.40;;
1404;SDS011;697;51.114;6.542;2023-07-09T02:09:27;6.83;;;6.07;;
1404;SDS011;697;51.114;6.542;2023-07-09T02:11:54;6.73;;;6.03;;
1404;SDS011;697;51.114;6.542;2023-07-09T02:14:20;8.70;;;6.53;;
1404;SDS011;697;51.114;6.542;2023-07-09T02:16:47;7.27;;;6.53;;
1404;SDS011;697;51.114;6.542;2023-07-09T02:19:14;7.80;;;6.03;;
1404;SDS011;697;51.114;6.542;2023-07-09T02:21:41;7.30;;;6.40;;
1404;SDS011;697;51.114;6.542;2023-07-09T02:24:07;7.93;;;7.13;;
1404;SDS011;697;51.114;6.542;2023-07-09T02:26:35;7.10;;;5.73;;
1404;SDS011;697;51.114;6.542;2023-07-09T02:29:02;8.03;;;6.27;;
1404;SDS011;697;51.114;6.542;2023-07-09T02:31:29;7.13;;;5.87;;
1404;SDS011;697;51.114;6.542;2023-07-09T02:33:55;7.80;;;6.53;;
1404;SDS011;697;51.114;6.542;2023-07-09T02:36:23;8.00;;;6.43;;
1404;SDS011;697;51.114;6.542;2023-07-09T02:38:50;10.67;;;7.37;;
1404;SDS011;697;51.114;6.542;2023-07-09T02:41:17;7.20;;;6.10;;
1404;SDS011;697;51.114;6.542;2023-07-09T02:43:45;11.60;;;6.80;;
1404;SDS011;697;51.114;6.542;2023-07-09T02:46:11;6.90;;;6.17;;
1404;SDS011;697;51.114;6.542;2023-07-09T02:48:38;6.73;;;5.90;;
1404;SDS011;697;51.114;6.542;2023-07-09T02:51:05;9.73;;;7.10;;
1404;SDS011;697;51.114;6.542;2023-07-09T02:53:31;9.47;;;6.90;;
1404;SDS011;697;51.114;6.542;2023-07-09T02:55:58;9.63;;;7.07;;
1404;SDS011;697;51.114;6.542;2023-07-09T02:58:25;9.30;;;6.47;;
1404;SDS011;697;51.114;6.542;2023-07-09T03:00:53;7.47;;;6.40;;
1404;SDS011;697;51.114;6.542;2023-07-09T03:03:20;9.50;;;6.67;;
1404;SDS011;697;51.114;6.542;2023-07-09T03:05:47;8.87;;;6.60;;
1404;SDS011;697;51.114;6.542;2023-07-09T03:08:14;9.60;;;6.60;;
1404;SDS011;697;51.114;6.542;2023-07-09T03:10:40;9.03;;;7.23;;
1404;SDS011;697;51.114;6.542;2023-07-09T03:13:07;7.83;;;7.03;;
1404;SDS011;697;51.114;6.542;2023-07-09T03:15:34;8.73;;;7.30;;
1404;SDS011;697;51.114;6.542;2023-07-09T03:18:02;8.40;;;7.50;;
1404;SDS011;697;51.114;6.542;2023-07-09T03:20:29;9.30;;;6.80;;
1404;SDS011;697;51.114;6.542;2023-07-09T03:22:57;8.07;;;6.60;;
1404;SDS011;697;51.114;6.542;2023-07-09T03:25:23;7.83;;;6.83;;
1404;SDS011;697;51.114;6.542;2023-07-09T03:27:50;10.07;;;7.27;;
1404;SDS011;697;51.114;6.542;2023-07-09T03:30:16;10.07;;;7.13;;
1404;SDS011;697;51.114;6.542;2023-07-09T03:32:43;7.23;;;6.50;;
1404;SDS011;697;51.114;6.542;2023-07-09T03:35:11;8.90;;;7.37;;
1404;SDS011;697;51.114;6.542;2023-07-09T03:37:38;8.23;;;7.13;;
1404;SDS011;697;51.114;6.542;2023-07-09T03:40:05;10.23;;;8.03;;
1404;SDS011;697;51.114;6.542;2023-07-09T03:42:35;8.53;;;7.17;;
1404;SDS011;697;51.114;6.542;2023-07-09T03:45:01;10.13;;;7.10;;
1404;SDS011;697;51.114;6.542;2023-07-09T03:47:28;8.33;;;6.87;;
1404;SDS011;697;51.114;6.542;2023-07-09T03:49:55;9.40;;;7.33;;
1404;SDS011;697;51.114;6.542;2023-07-09T03:52:23;11.80;;;7.73;;
1404;SDS011;697;51.114;6.542;2023-07-09T03:54:49;8.60;;;7.10;;
1404;SDS011;697;51.114;6.542;2023-07-09T03:57:16;7.77;;;6.53;;
1404;SDS011;697;51.114;6.542;2023-07-09T03:59:43;10.50;;;7.40;;
1404;SDS011;697;51.114;6.542;2023-07-09T04:02:09;7.83;;;7.03;;
1404;SDS011;697;51.114;6.542;2023-07-09T04:04:36;8.47;;;7.47;;
1404;SDS011;697;51.114;6.542;2023-07-09T04:07:03;9.07;;;7.37;;
1404;SDS011;697;51.114;6.542;2023-07-09T04:09:31;9.00;;;6.77;;
1404;SDS011;697;51.114;6.542;2023-07-09T04:11:58;8.40;;;7.23;;
1404;SDS011;697;51.114;6.542;2023-07-09T04:14:26;8.17;;;7.03;;
1404;SDS011;697;51.114;6.542;2023-07-09T04:16:53;7.87;;;6.70;;
1404;SDS011;697;51.114;6.542;2023-07-09T04:19:19;8.20;;;6.57;;
1404;SDS011;697;51.114;6.542;2023-07-09T04:21:46;9.50;;;6.70;;
1404;SDS011;697;51.114;6.542;2023-07-09T04:24:13;9.00;;;6.67;;
1404;SDS011;697;51.114;6.542;2023-07-09T04:26:43;7.17;;;6.47;;
1404;SDS011;697;51.114;6.542;2023-07-09T04:29:10;8.57;;;7.67;;
1404;SDS011;697;51.114;6.542;2023-07-09T04:31:37;10.90;;;7.80;;
1404;SDS011;697;51.114;6.542;2023-07-09T04:34:03;9.03;;;6.10;;
1404;SDS011;697;51.114;6.542;2023-07-09T04:36:31;11.23;;;7.60;;
1404;SDS011;697;51.114;6.542;2023-07-09T04:38:58;8.87;;;7.07;;
1404;SDS011;697;51.114;6.542;2023-07-09T04:41:25;11.90;;;7.73;;
1404;SDS011;697;51.114;6.542;2023-07-09T04:43:53;8.23;;;7.40;;
1404;SDS011;697;51.114;6.542;2023-07-09T04:46:19;8.93;;;8.03;;
1404;SDS011;697;51.114;6.542;2023-07-09T04:48:46;8.87;;;7.80;;
1404;SDS011;697;51.114;6.542;2023-07-09T04:51:13;8.60;;;7.30;;
1404;SDS011;697;51.114;6.542;2023-07-09T04:53:39;9.53;;;7.60;;
1404;SDS011;697;51.114;6.542;2023-07-09T04:56:07;8.80;;;7.17;;
1404;SDS011;697;51.114;6.542;2023-07-09T04:58:34;9.63;;;7.77;;
1404;SDS011;697;51.114;6.542;2023-07-09T05:01:02;9.80;;;8.07;;
1404;SDS011;697;51.114;6.542;2023-07-09T05:03:29;9.43;;;7.97;;
1404;SDS011;697;51.114;6.542;2023-07-09T05:05:56;8.77;;;7.63;;
1404;SDS011;697;51.114;6.542;2023-07-09T05:08:22;16.27;;;9.10;;
1404;SDS011;697;51.114;6.542;2023-07-09T05:10:50;9.50;;;7.73;;
1404;SDS011;697;51.114;6.542;2023-07-09T05:13:18;9.13;;;7.20;;
1404;SDS011;697;51.114;6.542;2023-07-09T05:15:46;10.07;;;8.50;;
1404;SDS011;697;51.114;6.542;2023-07-09T05:18:14;11.80;;;8.30;;
1404;SDS011;697;51.114;6.542;2023-07-09T05:20:42;15.90;;;10.53;;
1404;SDS011;697;51.114;6.542;2023-07-09T05:23:09;16.00;;;10.00;;
1404;SDS011;697;51.114;6.542;2023-07-09T05:25:36;13.13;;;9.70;;
1404;SDS011;697;51.114;6.542;2023-07-09T05:28:03;12.20;;;8.90;;
1404;SDS011;697;51.114;6.542;2023-07-09T05:30:31;11.23;;;9.37;;
1404;SDS011;697;51.114;6.542;2023-07-09T05:32:57;13.50;;;9.40;;
1404;SDS011;697;51.114;6.542;2023-07-09T05:35:26;11.30;;;8.80;;
1404;SDS011;697;51.114;6.542;2023-07-09T05:37:53;14.73;;;8.47;;
1404;SDS011;697;51.114;6.542;2023-07-09T05:40:20;9.30;;;8.40;;
1404;SDS011;697;51.114;6.542;2023-07-09T05:42:48;11.37;;;8.77;;
1404;SDS011;697;51.114;6.542;2023-07-09T05:45:15;9.70;;;7.93;;
1404;SDS011;697;51.114;6.542;2023-07-09T05:47:42;10.87;;;7.93;;
1404;SDS011;697;51.114;6.542;2023-07-09T05:50:08;12.03;;;9.53;;
1404;SDS011;697;51.114;6.542;2023-07-09T05:52:37;13.30;;;8.53;;
1404;SDS011;697;51.114;6.542;2023-07-09T05:55:04;15.03;;;8.30;;
1404;SDS011;697;51.114;6.542;2023-07-09T05:57:31;9.60;;;8.37;;
1404;SDS011;697;51.114;6.542;2023-07-09T05:59:58;10.60;;;8.23;;
1404;SDS011;697;51.114;6.542;2023-07-09T06:02:25;10.87;;;8.00;;
1404;SDS011;697;51.114;6.542;2023-07-09T06:04:51;11.33;;;8.77;;
1404;SDS011;697;51.114;6.542;2023-07-09T06:07:18;11.70;;;8.03;;
1404;SDS011;697;51.114;6.542;2023-07-09T06:09:46;11.90;;;7.50;;
1404;SDS011;697;51.114;6.542;2023-07-09T06:12:13;9.23;;;7.20;;
1404;SDS011;697;51.114;6.542;2023-07-09T06:14:40;8.10;;;7.30;;
1404;SDS011;697;51.114;6.542;2023-07-09T06:17:07;9.73;;;7.60;;
1404;SDS011;697;51.114;6.542;2023-07-09T06:19:33;8.87;;;7.43;;
1404;SDS011;697;51.114;6.542;2023-07-09T06:22:00;8.53;;;6.50;;
1404;SDS011;697;51.114;6.542;2023-07-09T06:24:27;10.30;;;7.30;;
1404;SDS011;697;51.114;6.542;2023-07-09T06:26:55;10.43;;;8.60;;
1404;SDS011;697;51.114;6.542;2023-07-09T06:29:21;10.33;;;7.33;;
1404;SDS011;697;51.114;6.542;2023-07-09T06:31:48;9.23;;;7.20;;
1404;SDS011;697;51.114;6.542;2023-07-09T06:34:15;9.13;;;7.00;;
1404;SDS011;697;51.114;6.542;2023-07-09T06:36:42;10.57;;;7.30;;
1404;SDS011;697;51.114;6.542;2023-07-09T06:39:09;12.70;;;7.40;;
1404;SDS011;697;51.114;6.542;2023-07-09T06:41:35;9.03;;;7.10;;
1404;SDS011;697;51.114;6.542;2023-07-09T06:44:05;8.90;;;7.40;;
1404;SDS011;697;51.114;6.542;2023-07-09T06:46:32;11.73;;;7.70;;
1404;SDS011;697;51.114;6.542;2023-07-09T06:48:59;9.43;;;7.70;;
1404;SDS011;697;51.114;6.542;2023-07-09T06:51:26;9.80;;;8.20;;
1404;SDS011;697;51.114;6.542;2023-07-09T06:53:53;9.07;;;7.63;;
1404;SDS011;697;51.114;6.542;2023-07-09T06:56:20;10.47;;;8.50;;
1404;SDS011;697;51.114;6.542;2023-07-09T06:58:46;9.50;;;8.03;;
1404;SDS011;697;51.114;6.542;2023-07-09T07:01:14;11.87;;;8.27;;
1404;SDS011;697;51.114;6.542;2023-07-09T07:03:41;10.53;;;8.37;;
1404;SDS011;697;51.114;6.542;2023-07-09T07:06:08;12.03;;;7.33;;
1404;SDS011;697;51.114;6.542;2023-07-09T07:08:34;14.50;;;7.90;;
1404;SDS011;697;51.114;6.542;2023-07-09T07:11:02;7.10;;;6.40;;
1404;SDS011;697;51.114;6.542;2023-07-09T07:13:31;7.40;;;6.70;;
1404;SDS011;697;51.114;6.542;2023-07-09T07:16:00;7.80;;;7.00;;
1404;SDS011;697;51.114;6.542;2023-07-09T07:18:28;11.53;;;7.80;;
1404;SDS011;697;51.114;6.542;2023-07-09T07:20:55;8.10;;;6.37;;
1404;SDS011;697;51.114;6.542;2023-07-09T07:23:22;8.57;;;7.10;;
1404;SDS011;697;51.114;6.542;2023-07-09T07:25:49;7.50;;;6.67;;
1404;SDS011;697;51.114;6.542;2023-07-09T07:28:16;9.37;;;7.40;;
1404;SDS011;697;51.114;6.542;2023-07-09T07:30:44;9.67;;;7.90;;
1404;SDS011;697;51.114;6.542;2023-07-09T07:33:14;8.70;;;6.53;;
1404;SDS011;697;51.114;6.542;2023-07-09T07:35:42;8.27;;;6.77;;
1404;SDS011;697;51.114;6.542;2023-07-09T07:38:09;8.30;;;6.00;;
1404;SDS011;697;51.114;6.542;2023-07-09T07:40:36;12.03;;;6.87;;
1404;SDS011;697;51.114;6.542;2023-07-09T07:43:03;13.00;;;6.80;;
1404;SDS011;697;51.114;6.542;2023-07-09T07:45:29;7.80;;;7.10;;
1404;SDS011;697;51.114;6.542;2023-07-09T07:47:56;15.83;;;7.43;;
1404;SDS011;697;51.114;6.542;2023-07-09T07:50:23;8.33;;;6.20;;
1404;SDS011;697;51.114;6.542;2023-07-09T07:52:51;7.67;;;5.90;;
1404;SDS011;697;51.114;6.542;2023-07-09T07:55:17;9.10;;;6.43;;
1404;SDS011;697;51.114;6.542;2023-07-09T07:57:45;6.60;;;6.00;;
1404;SDS011;697;51.114;6.542;2023-07-09T08:00:12;8.30;;;6.70;;
1404;SDS011;697;51.114;6.542;2023-07-09T08:02:39;8.53;;;6.50;;
1404;SDS011;697;51.114;6.542;2023-07-09T08:05:06;7.10;;;6.40;;
1404;SDS011;697;51.114;6.542;2023-07-09T08:07:33;9.73;;;6.73;;
1404;SDS011;697;51.114;6.542;2023-07-09T08:10:01;10.50;;;6.93;;
1404;SDS011;697;51.114;6.542;2023-07-09T08:12:28;10.20;;;6.80;;
1404;SDS011;697;51.114;6.542;2023-07-09T08:14:55;9.10;;;7.50;;
1404;SDS011;697;51.114;6.542;2023-07-09T08:17:21;9.20;;;6.63;;
1404;SDS011;697;51.114;6.542;2023-07-09T08:19:49;8.50;;;5.77;;
1404;SDS011;697;51.114;6.542;2023-07-09T08:22:19;6.57;;;5.97;;
1404;SDS011;697;51.114;6.542;2023-07-09T08:24:46;7.60;;;6.90;;
1404;SDS011;697;51.114;6.542;2023-07-09T08:27:15;7.40;;;6.20;;
1404;SDS011;697;51.114;6.542;2023-07-09T08:29:42;7.47;;;6.70;;
1404;SDS011;697;51.114;6.542;2023-07-09T08:32:09;7.80;;;6.17;;
1404;SDS011;697;51.114;6.542;2023-07-09T08:34:37;7.40;;;6.30;;
1404;SDS011;697;51.114;6.542;2023-07-09T08:37:05;11.17;;;7.17;;
1404;SDS011;697;51.114;6.542;2023-07-09T08:39:32;6.33;;;5.73;;
1404;SDS011;697;51.114;6.542;2023-07-09T08:41:59;7.50;;;6.03;;
1404;SDS011;697;51.114;6.542;2023-07-09T08:44:37;7.80;;;6.17;;
1404;SDS011;697;51.114;6.542;2023-07-09T08:47:20;6.97;;;5.87;;
1404;SDS011;697;51.114;6.542;2023-07-09T08:49:56;6.50;;;5.90;;
1404;SDS011;697;51.114;6.542;2023-07-09T08:52:28;6.53;;;5.90;;
1404;SDS011;697;51.114;6.542;2023-07-09T08:54:59;7.30;;;6.30;;
1404;SDS011;697;51.114;6.542;2023-07-09T08:57:31;7.07;;;6.17;;
1404;SDS011;697;51.114;6.542;2023-07-09T09:00:04;6.80;;;6.10;;
1404;SDS011;697;51.114;6.542;2023-07-09T09:02:39;6.90;;;6.30;;
1404;SDS011;697;51.114;6.542;2023-07-09T09:05:11;6.93;;;5.97;;
1404;SDS011;697;51.114;6.542;2023-07-09T09:07:43;9.30;;;5.90;;
1404;SDS011;697;51.114;6.542;2023-07-09T09:10:14;9.07;;;5.73;;
1404;SDS011;697;51.114;6.542;2023-07-09T09:12:48;6.80;;;6.20;;
1404;SDS011;697;51.114;6.542;2023-07-09T09:15:24;6.72;;;5.78;;
1404;SDS011;697;51.114;6.542;2023-07-09T09:17:52;6.80;;;5.75;;
1404;SDS011;697;51.114;6.542;2023-07-09T09:20:22;5.22;;;4.75;;
1404;SDS011;697;51.114;6.542;2023-07-09T09:22:50;7.45;;;5.05;;
1404;SDS011;697;51.114;6.542;2023-07-09T09:25:23;7.32;;;5.07;;
1404;SDS011;697;51.114;6.542;2023-07-09T09:27:54;5.40;;;4.88;;
1404;SDS011;697;51.114;6.542;2023-07-09T09:30:21;7.70;;;5.75;;
1404;SDS011;697;51.114;6.542;2023-07-09T09:32:51;6.22;;;5.15;;
1404;SDS011;697;51.114;6.542;2023-07-09T09:35:25;5.70;;;5.15;;
1404;SDS011;697;51.114;6.542;2023-07-09T09:37:54;6.30;;;5.65;;
1404;SDS011;697;51.114;6.542;2023-07-09T09:40:22;6.85;;;5.70;;
1404;SDS011;697;51.114;6.542;2023-07-09T09:42:50;5.50;;;5.00;;
1404;SDS011;697;51.114;6.542;2023-07-09T09:45:19;7.18;;;5.45;;
1404;SDS011;697;51.114;6.542;2023-07-09T09:47:49;6.00;;;5.47;;
1404;SDS011;697;51.114;6.542;2023-07-09T09:50:16;6.20;;;5.28;;
1404;SDS011;697;51.114;6.542;2023-07-09T09:52:44;5.93;;;4.95;;
1404;SDS011;697;51.114;6.542;2023-07-09T09:55:15;6.00;;;5.50;;
1404;SDS011;697;51.114;6.542;2023-07-09T09:57:47;6.30;;;5.70;;
1404;SDS011;697;51.114;6.542;2023-07-09T10:00:15;5.72;;;5.03;;
1404;SDS011;697;51.114;6.542;2023-07-09T10:02:42;6.07;;;5.57;;
1404;SDS011;697;51.114;6.542;2023-07-09T10:05:12;5.90;;;5.32;;
1404;SDS011;697;51.114;6.542;2023-07-09T10:07:43;5.82;;;5.32;;
1404;SDS011;697;51.114;6.542;2023-07-09T10:10:13;6.38;;;5.78;;
1404;SDS011;697;51.114;6.542;2023-07-09T10:12:48;6.60;;;5.30;;
1404;SDS011;697;51.114;6.542;2023-07-09T10:15:21;5.40;;;4.90;;
1404;SDS011;697;51.114;6.542;2023-07-09T10:17:54;5.47;;;4.97;;
1404;SDS011;697;51.114;6.542;2023-07-09T10:20:29;6.45;;;5.32;;
1404;SDS011;697;51.114;6.542;2023-07-09T10:23:02;6.22;;;5.10;;
1404;SDS011;697;51.114;6.542;2023-07-09T10:25:39;5.00;;;4.57;;
1404;SDS011;697;51.114;6.542;2023-07-09T10:28:16;5.57;;;4.38;;
1404;SDS011;697;51.114;6.542;2023-07-09T10:30:56;9.30;;;5.35;;
1404;SDS011;697;51.114;6.542;2023-07-09T10:33:32;7.32;;;5.20;;
1404;SDS011;697;51.114;6.542;2023-07-09T10:36:15;5.22;;;4.72;;
1404;SDS011;697;51.114;6.542;2023-07-09T10:38:52;6.53;;;4.40;;
1404;SDS011;697;51.114;6.542;2023-07-09T10:41:25;6.10;;;4.30;;
1404;SDS011;697;51.114;6.542;2023-07-09T10:43:54;5.13;;;4.63;;
1404;SDS011;697;51.114;6.542;2023-07-09T10:46:27;7.20;;;4.80;;
1404;SDS011;697;51.114;6.542;2023-07-09T10:48:57;5.07;;;4.32;;
1404;SDS011;697;51.114;6.542;2023-07-09T10:51:31;5.13;;;4.18;;
1404;SDS011;697;51.114;6.542;2023-07-09T10:54:00;5.18;;;4.40;;
1404;SDS011;697;51.114;6.542;2023-07-09T10:56:32;4.75;;;4.30;;
1404;SDS011;697;51.114;6.542;2023-07-09T10:59:03;4.43;;;4.03;;
1404;SDS011;697;51.114;6.542;2023-07-09T11:01:37;4.97;;;4.57;;
1404;SDS011;697;51.114;6.542;2023-07-09T11:04:09;4.93;;;4.43;;
1404;SDS011;697;51.114;6.542;2023-07-09T11:06:52;4.72;;;4.13;;
1404;SDS011;697;51.114;6.542;2023-07-09T11:09:23;3.97;;;3.65;;
1404;SDS011;697;51.114;6.542;2023-07-09T11:11:54;3.42;;;3.17;;
1404;SDS011;697;51.114;6.542;2023-07-09T11:14:25;4.68;;;4.18;;
1404;SDS011;697;51.114;6.542;2023-07-09T11:16:57;6.10;;;3.83;;
1404;SDS011;697;51.114;6.542;2023-07-09T11:19:26;4.03;;;3.63;;
1404;SDS011;697;51.114;6.542;2023-07-09T11:22:02;4.80;;;4.00;;
1404;SDS011;697;51.114;6.542;2023-07-09T11:24:33;4.90;;;4.40;;
1404;SDS011;697;51.114;6.542;2023-07-09T11:27:02;4.57;;;3.90;;
1404;SDS011;697;51.114;6.542;2023-07-09T11:29:28;6.40;;;4.13;;
1404;SDS011;697;51.114;6.542;2023-07-09T11:32:06;4.65;;;4.03;;
1404;SDS011;697;51.114;6.542;2023-07-09T11:34:34;4.95;;;4.40;;
1404;SDS011;697;51.114;6.542;2023-07-09T11:37:14;7.00;;;4.82;;
1404;SDS011;697;51.114;6.542;2023-07-09T11:39:42;4.68;;;4.28;;
1404;SDS011;697;51.114;6.542;2023-07-09T11:42:23;5.43;;;4.50;;
1404;SDS011;697;51.114;6.542;2023-07-09T11:44:52;7.18;;;5.00;;
1404;SDS011;697;51.114;6.542;2023-07-09T11:47:24;5.80;;;4.88;;
1404;SDS011;697;51.114;6.542;2023-07-09T11:49:54;5.28;;;4.88;;
1404;SDS011;697;51.114;6.542;2023-07-09T11:52:26;5.28;;;4.32;;
1404;SDS011;697;51.114;6.542;2023-07-09T11:55:00;5.05;;;4.55;;
1404;SDS011;697;51.114;6.542;2023-07-09T11:57:28;4.85;;;4.43;;
1404;SDS011;697;51.114;6.542;2023-07-09T11:59:58;4.78;;;4.28;;
1404;SDS011;697;51.114;6.542;2023-07-09T12:02:26;4.43;;;3.53;;
1404;SDS011;697;51.114;6.542;2023-07-09T12:04:58;4.78;;;3.55;;
1404;SDS011;697;51.114;6.542;2023-07-09T12:07:29;5.35;;;3.85;;
1404;SDS011;697;51.114;6.542;2023-07-09T12:09:56;4.55;;;3.50;;
1404;SDS011;697;51.114;6.542;2023-07-09T12:12:23;5.05;;;3.88;;
1404;SDS011;697;51.114;6.542;2023-07-09T12:14:51;5.40;;;3.45;;
1404;SDS011;697;51.114;6.542;2023-07-09T12:17:18;5.53;;;3.95;;
1404;SDS011;697;51.114;6.542;2023-07-09T12:19:45;7.75;;;3.78;;
1404;SDS011;697;51.114;6.542;2023-07-09T12:22:15;5.88;;;3.35;;
1404;SDS011;697;51.114;6.542;2023-07-09T12:24:46;4.40;;;4.00;;
1404;SDS011;697;51.114;6.542;2023-07-09T12:27:17;4.85;;;3.80;;
1404;SDS011;697;51.114;6.542;2023-07-09T12:29:45;6.30;;;3.88;;
1404;SDS011;697;51.114;6.542;2023-07-09T12:32:13;6.70;;;3.92;;
1404;SDS011;697;51.114;6.542;2023-07-09T12:34:41;4.15;;;3.47;;
1404;SDS011;697;51.114;6.542;2023-07-09T12:37:08;6.63;;;3.70;;
1404;SDS011;697;51.114;6.542;2023-07-09T12:39:39;5.15;;;3.33;;
1404;SDS011;697;51.114;6.542;2023-07-09T12:42:14;7.47;;;4.05;;
1404;SDS011;697;51.114;6.542;2023-07-09T12:44:42;3.88;;;3.50;;
1404;SDS011;697;51.114;6.542;2023-07-09T12:47:12;6.85;;;4.00;;
1404;SDS011;697;51.114;6.542;2023-07-09T12:49:40;5.25;;;4.70;;
1404;SDS011;697;51.114;6.542;2023-07-09T12:52:12;6.63;;;4.50;;
1404;SDS011;697;51.114;6.542;2023-07-09T12:54:51;4.65;;;4.22;;
1404;SDS011;697;51.114;6.542;2023-07-09T12:57:22;4.70;;;4.30;;
1404;SDS011;697;51.114;6.542;2023-07-09T12:59:50;6.05;;;5.05;;
1404;SDS011;697;51.114;6.542;2023-07-09T13:02:18;6.13;;;4.57;;
1404;SDS011;697;51.114;6.542;2023-07-09T13:04:46;5.13;;;4.10;;
1404;SDS011;697;51.114;6.542;2023-07-09T13:07:25;7.93;;;4.18;;
1404;SDS011;697;51.114;6.542;2023-07-09T13:09:54;9.70;;;4.53;;
1404;SDS011;697;51.114;6.542;2023-07-09T13:12:29;5.75;;;4.50;;
1404;SDS011;697;51.114;6.542;2023-07-09T13:14:58;6.40;;;4.32;;
1404;SDS011;697;51.114;6.542;2023-07-09T13:17:27;9.10;;;5.80;;
1404;SDS011;697;51.114;6.542;2023-07-09T13:19:55;11.83;;;4.80;;
1404;SDS011;697;51.114;6.542;2023-07-09T13:22:22;11.57;;;4.60;;
1404;SDS011;697;51.114;6.542;2023-07-09T13:24:50;7.83;;;5.10;;
1404;SDS011;697;51.114;6.542;2023-07-09T13:27:17;11.60;;;5.00;;
1404;SDS011;697;51.114;6.542;2023-07-09T13:29:45;7.70;;;5.23;;
1404;SDS011;697;51.114;6.542;2023-07-09T13:32:13;6.07;;;5.10;;
1404;SDS011;697;51.114;6.542;2023-07-09T13:34:41;6.40;;;4.93;;
1404;SDS011;697;51.114;6.542;2023-07-09T13:37:08;7.53;;;4.67;;
1404;SDS011;697;51.114;6.542;2023-07-09T13:39:38;8.23;;;3.80;;
1404;SDS011;697;51.114;6.542;2023-07-09T13:42:08;5.60;;;4.00;;
1404;SDS011;697;51.114;6.542;2023-07-09T13:44:38;7.57;;;4.77;;
1404;SDS011;697;51.114;6.542;2023-07-09T13:47:09;6.30;;;3.97;;
1404;SDS011;697;51.114;6.542;2023-07-09T13:49:40;5.90;;;4.20;;
1404;SDS011;697;51.114;6.542;2023-07-09T13:52:08;4.87;;;3.83;;
1404;SDS011;697;51.114;6.542;2023-07-09T13:54:39;17.67;;;4.93;;
1404;SDS011;697;51.114;6.542;2023-07-09T13:57:09;31.70;;;6.43;;
1404;SDS011;697;51.114;6.542;2023-07-09T13:59:39;27.40;;;6.47;;
1404;SDS011;697;51.114;6.542;2023-07-09T14:02:13;20.20;;;6.17;;
1404;SDS011;697;51.114;6.542;2023-07-09T14:04:46;10.10;;;4.57;;
1404;SDS011;697;51.114;6.542;2023-07-09T14:07:15;29.73;;;6.97;;
1404;SDS011;697;51.114;6.542;2023-07-09T14:09:50;34.33;;;5.80;;
1404;SDS011;697;51.114;6.542;2023-07-09T14:12:17;32.67;;;6.03;;
1404;SDS011;697;51.114;6.542;2023-07-09T14:14:43;18.77;;;5.20;;
1404;SDS011;697;51.114;6.542;2023-07-09T14:17:12;9.77;;;5.10;;
1404;SDS011;697;51.114;6.542;2023-07-09T14:19:39;12.93;;;5.10;;
1404;SDS011;697;51.114;6.542;2023-07-09T14:22:09;6.33;;;4.50;;
1404;SDS011;697;51.114;6.542;2023-07-09T14:24:47;4.73;;;3.70;;
1404;SDS011;697;51.114;6.542;2023-07-09T14:27:14;8.47;;;4.97;;
1404;SDS011;697;51.114;6.542;2023-07-09T14:29:41;10.43;;;5.57;;
1404;SDS011;697;51.114;6.542;2023-07-09T14:32:09;14.33;;;5.97;;
1404;SDS011;697;51.114;6.542;2023-07-09T14:34:59;19.47;;;6.33;;
1404;SDS011;697;51.114;6.542;2023-07-09T14:37:27;10.03;;;5.90;;
1404;SDS011;697;51.114;6.542;2023-07-09T14:39:54;10.70;;;5.90;;
1404;SDS011;697;51.114;6.542;2023-07-09T14:42:21;10.77;;;5.80;;
1404;SDS011;697;51.114;6.542;2023-07-09T14:44:48;10.83;;;5.17;;
1404;SDS011;697;51.114;6.542;2023-07-09T14:47:16;9.40;;;5.63;;
1404;SDS011;697;51.114;6.542;2023-07-09T14:49:46;10.40;;;5.57;;
1404;SDS011;697;51.114;6.542;2023-07-09T14:52:13;12.03;;;5.23;;
1404;SDS011;697;51.114;6.542;2023-07-09T14:54:43;9.73;;;6.03;;
1404;SDS011;697;51.114;6.542;2023-07-09T14:57:16;11.57;;;5.50;;
1404;SDS011;697;51.114;6.542;2023-07-09T14:59:45;9.40;;;6.17;;
1404;SDS011;697;51.114;6.542;2023-07-09T15:02:20;8.47;;;5.37;;
1404;SDS011;697;51.114;6.542;2023-07-09T15:05:01;13.23;;;6.00;;
1404;SDS011;697;51.114;6.542;2023-07-09T15:07:28;6.23;;;5.23;;
1404;SDS011;697;51.114;6.542;2023-07-09T15:09:56;8.27;;;5.33;;
1404;SDS011;697;51.114;6.542;2023-07-09T15:12:25;6.67;;;5.60;;
1404;SDS011;697;51.114;6.542;2023-07-09T15:14:55;8.17;;;5.80;;
1404;SDS011;697;51.114;6.542;2023-07-09T15:17:28;9.53;;;5.37;;
1404;SDS011;697;51.114;6.542;2023-07-09T15:19:55;8.97;;;5.20;;
1404;SDS011;697;51.114;6.542;2023-07-09T15:22:26;6.20;;;5.20;;
1404;SDS011;697;51.114;6.542;2023-07-09T15:24:56;8.67;;;6.10;;
1404;SDS011;697;51.114;6.542;2023-07-09T15:27:23;5.85;;;4.68;;
1404;SDS011;697;51.114;6.542;2023-07-09T15:29:50;6.17;;;5.53;;
1404;SDS011;697;51.114;6.542;2023-07-09T15:32:16;8.30;;;5.30;;
1404;SDS011;697;51.114;6.542;2023-07-09T15:34:43;6.20;;;5.60;;
1404;SDS011;697;51.114;6.542;2023-07-09T15:37:11;7.93;;;5.63;;
1404;SDS011;697;51.114;6.542;2023-07-09T15:39:41;8.20;;;5.80;;
1404;SDS011;697;51.114;6.542;2023-07-09T15:42:11;6.77;;;5.97;;